sensor_id;sensor_type;location;lat;lon;timestamp;pressure;altitude;pressure_sealevel;temperature;humidity
163;BME280;3946;48.958;8.284;2023-03-21T00:01:32;100747.19;;;8.76;99.23
163;BME280;3946;48.958;8.284;2023-03-21T00:04:16;100747.19;;;8.76;100.00
163;BME280;3946;48.958;8.284;2023-03-21T00:07:01;100744.66;;;8.74;100.00
163;BME280;3946;48.958;8.284;2023-03-21T00:09:48;100740.56;;;8.70;100.00
163;BME280;3946;48.958;8.284;2023-03-21T00:12:33;100737.22;;;8.68;100.00
163;BME280;3946;48.958;8.284;2023-03-21T00:15:20;100739.19;;;8.63;100.00
163;BME280;3946;48.958;8.284;2023-03-21T00:18:08;100737.50;;;8.62;100.00
163;BME280;3946;48.958;8.284;2023-03-21T00:20:57;100737.56;;;8.61;100.00
163;BME280;3946;48.958;8.284;2023-03-21T00:23:42;100735.75;;;8.63;100.00
163;BME280;3946;48.958;8.284;2023-03-21T00:26:30;100736.44;;;8.66;100.00
163;BME280;3946;48.958;8.284;2023-03-21T00:29:15;100725.03;;;8.88;100.00
163;BME280;3946;48.958;8.284;2023-03-21T00:32:03;100728.25;;;8.75;100.00
163;BME280;3946;48.958;8.284;2023-03-21T00:34:48;100726.25;;;8.81;100.00
163;BME280;3946;48.958;8.284;2023-03-21T00:37:34;100727.41;;;8.75;100.00
163;BME280;3946;48.958;8.284;2023-03-21T00:40:20;100727.34;;;8.76;100.00
163;BME280;3946;48.958;8.284;2023-03-21T00:43:06;100724.84;;;8.75;100.00
163;BME280;3946;48.958;8.284;2023-03-21T00:45:51;100727.00;;;8.83;100.00
163;BME280;3946;48.958;8.284;2023-03-21T00:48:36;100717.38;;;8.86;100.00
163;BME280;3946;48.958;8.284;2023-03-21T00:51:24;100718.44;;;8.82;100.00
163;BME280;3946;48.958;8.284;2023-03-21T00:54:13;100717.00;;;8.76;100.00
163;BME280;3946;48.958;8.284;2023-03-21T00:56:58;100715.34;;;8.75;100.00
163;BME280;3946;48.958;8.284;2023-03-21T00:59:45;100708.44;;;8.76;100.00
163;BME280;3946;48.958;8.284;2023-03-21T01:02:30;100704.31;;;8.72;100.00
163;BME280;3946;48.958;8.284;2023-03-21T01:05:15;100704.53;;;8.67;100.00
163;BME280;3946;48.958;8.284;2023-03-21T01:08:20;100701.34;;;8.62;100.00
163;BME280;3946;48.958;8.284;2023-03-21T01:11:08;100701.75;;;8.55;100.00
163;BME280;3946;48.958;8.284;2023-03-21T01:13:54;100703.84;;;8.47;100.00
163;BME280;3946;48.958;8.284;2023-03-21T01:16:42;100705.22;;;8.36;100.00
163;BME280;3946;48.958;8.284;2023-03-21T01:19:27;100702.97;;;8.29;100.00
163;BME280;3946;48.958;8.284;2023-03-21T01:22:12;100704.25;;;8.20;100.00
163;BME280;3946;48.958;8.284;2023-03-21T01:24:57;100697.88;;;8.10;100.00
163;BME280;3946;48.958;8.284;2023-03-21T01:27:42;100702.41;;;8.05;100.00
163;BME280;3946;48.958;8.284;2023-03-21T01:30:28;100700.13;;;7.99;100.00
163;BME280;3946;48.958;8.284;2023-03-21T01:33:15;100695.09;;;7.96;100.00
163;BME280;3946;48.958;8.284;2023-03-21T01:36:01;100694.50;;;7.91;100.00
163;BME280;3946;48.958;8.284;2023-03-21T01:38:47;100685.50;;;7.81;100.00
163;BME280;3946;48.958;8.284;2023-03-21T01:41:33;100696.06;;;7.76;100.00
163;BME280;3946;48.958;8.284;2023-03-21T01:44:18;100702.19;;;7.73;100.00
163;BME280;3946;48.958;8.284;2023-03-21T01:47:04;100697.38;;;7.66;100.00
163;BME280;3946;48.958;8.284;2023-03-21T01:50:09;100687.22;;;7.63;100.00
163;BME280;3946;48.958;8.284;2023-03-21T01:53:11;100691.69;;;7.59;100.00
163;BME280;3946;48.958;8.284;2023-03-21T01:55:58;100689.38;;;7.53;100.00
163;BME280;3946;48.958;8.284;2023-03-21T01:59:04;100679.25;;;7.49;100.00
163;BME280;3946;48.958;8.284;2023-03-21T02:02:20;100683.66;;;7.47;100.00
163;BME280;3946;48.958;8.284;2023-03-21T02:05:21;100673.63;;;7.41;100.00
163;BME280;3946;48.958;8.284;2023-03-21T02:08:06;100674.03;;;7.31;100.00
163;BME280;3946;48.958;8.284;2023-03-21T02:10:52;100675.16;;;7.26;100.00
163;BME280;3946;48.958;8.284;2023-03-21T02:13:49;100670.47;;;7.15;100.00
163;BME280;3946;48.958;8.284;2023-03-21T02:16:37;100669.06;;;7.08;100.00
163;BME280;3946;48.958;8.284;2023-03-21T02:23:05;100666.56;;;7.07;100.00
163;BME280;3946;48.958;8.284;2023-03-21T02:29:06;100663.41;;;7.00;100.00
163;BME280;3946;48.958;8.284;2023-03-21T02:31:57;100663.63;;;6.95;100.00
163;BME280;3946;48.958;8.284;2023-03-21T02:37:54;100666.47;;;6.89;100.00
163;BME280;3946;48.958;8.284;2023-03-21T02:40:41;100653.09;;;7.00;100.00
163;BME280;3946;48.958;8.284;2023-03-21T02:43:30;100656.88;;;6.93;100.00
163;BME280;3946;48.958;8.284;2023-03-21T02:46:19;100654.09;;;6.97;100.00
163;BME280;3946;48.958;8.284;2023-03-21T02:49:06;100659.81;;;7.04;100.00
163;BME280;3946;48.958;8.284;2023-03-21T02:51:53;100654.38;;;7.10;100.00
163;BME280;3946;48.958;8.284;2023-03-21T02:54:42;100658.78;;;7.08;100.00
163;BME280;3946;48.958;8.284;2023-03-21T02:57:28;100657.56;;;7.15;100.00
163;BME280;3946;48.958;8.284;2023-03-21T03:00:19;100655.09;;;7.14;100.00
163;BME280;3946;48.958;8.284;2023-03-21T03:03:05;100643.78;;;7.16;100.00
163;BME280;3946;48.958;8.284;2023-03-21T03:05:51;100644.84;;;7.12;100.00
163;BME280;3946;48.958;8.284;2023-03-21T03:08:39;100648.41;;;7.10;100.00
163;BME280;3946;48.958;8.284;2023-03-21T03:11:28;100639.97;;;7.06;100.00
163;BME280;3946;48.958;8.284;2023-03-21T03:14:25;100641.84;;;7.02;100.00
163;BME280;3946;48.958;8.284;2023-03-21T03:17:17;100634.41;;;6.96;100.00
163;BME280;3946;48.958;8.284;2023-03-21T03:20:07;100639.69;;;6.93;100.00
163;BME280;3946;48.958;8.284;2023-03-21T03:22:57;100636.34;;;6.91;100.00
163;BME280;3946;48.958;8.284;2023-03-21T03:25:46;100635.13;;;6.80;100.00
163;BME280;3946;48.958;8.284;2023-03-21T03:28:35;100634.44;;;6.76;100.00
163;BME280;3946;48.958;8.284;2023-03-21T03:31:27;100626.19;;;6.68;100.00
163;BME280;3946;48.958;8.284;2023-03-21T03:34:18;100634.91;;;6.65;100.00
163;BME280;3946;48.958;8.284;2023-03-21T03:37:06;100633.47;;;6.58;100.00
163;BME280;3946;48.958;8.284;2023-03-21T03:39:54;100631.03;;;6.55;100.00
163;BME280;3946;48.958;8.284;2023-03-21T03:42:44;100624.59;;;6.45;100.00
163;BME280;3946;48.958;8.284;2023-03-21T03:45:44;100629.22;;;6.37;100.00
163;BME280;3946;48.958;8.284;2023-03-21T03:48:32;100633.66;;;6.33;100.00
163;BME280;3946;48.958;8.284;2023-03-21T03:51:20;100633.75;;;6.32;100.00
163;BME280;3946;48.958;8.284;2023-03-21T03:54:31;100642.66;;;6.23;100.00
163;BME280;3946;48.958;8.284;2023-03-21T03:57:19;100633.53;;;6.16;100.00
163;BME280;3946;48.958;8.284;2023-03-21T04:00:05;100643.25;;;6.10;100.00
163;BME280;3946;48.958;8.284;2023-03-21T04:03:07;100646.72;;;6.09;100.00
163;BME280;3946;48.958;8.284;2023-03-21T04:05:52;100644.25;;;6.06;100.00
163;BME280;3946;48.958;8.284;2023-03-21T04:08:37;100650.34;;;6.03;100.00
163;BME280;3946;48.958;8.284;2023-03-21T04:11:23;100650.19;;;6.08;100.00
163;BME280;3946;48.958;8.284;2023-03-21T04:14:11;100655.31;;;6.08;100.00
163;BME280;3946;48.958;8.284;2023-03-21T04:16:57;100642.78;;;6.00;100.00
163;BME280;3946;48.958;8.284;2023-03-21T04:19:43;100644.53;;;6.00;100.00
163;BME280;3946;48.958;8.284;2023-03-21T04:22:29;100639.38;;;6.00;100.00
163;BME280;3946;48.958;8.284;2023-03-21T04:25:15;100639.38;;;6.00;100.00
163;BME280;3946;48.958;8.284;2023-03-21T04:28:00;100640.13;;;6.02;100.00
163;BME280;3946;48.958;8.284;2023-03-21T04:31:05;100643.63;;;6.01;100.00
163;BME280;3946;48.958;8.284;2023-03-21T04:33:59;100645.25;;;6.02;100.00
163;BME280;3946;48.958;8.284;2023-03-21T04:36:47;100648.69;;;6.02;100.00
163;BME280;3946;48.958;8.284;2023-03-21T04:39:33;100650.50;;;6.00;100.00
163;BME280;3946;48.958;8.284;2023-03-21T04:42:18;100649.84;;;5.95;100.00
163;BME280;3946;48.958;8.284;2023-03-21T04:45:03;100646.72;;;6.09;100.00
163;BME280;3946;48.958;8.284;2023-03-21T04:47:48;100633.41;;;5.99;100.00
163;BME280;3946;48.958;8.284;2023-03-21T04:50:33;100633.50;;;5.96;100.00
163;BME280;3946;48.958;8.284;2023-03-21T04:53:20;100641.34;;;5.93;100.00
163;BME280;3946;48.958;8.284;2023-03-21T04:56:05;100636.38;;;5.88;100.00
163;BME280;3946;48.958;8.284;2023-03-21T04:58:51;100631.56;;;5.79;100.00
163;BME280;3946;48.958;8.284;2023-03-21T05:01:36;100636.16;;;5.71;100.00
163;BME280;3946;48.958;8.284;2023-03-21T05:04:24;100627.81;;;5.66;100.00
163;BME280;3946;48.958;8.284;2023-03-21T05:07:10;100627.22;;;5.59;100.00
163;BME280;3946;48.958;8.284;2023-03-21T05:09:57;100625.25;;;5.66;100.00
163;BME280;3946;48.958;8.284;2023-03-21T05:12:42;100620.09;;;5.66;100.00
163;BME280;3946;48.958;8.284;2023-03-21T05:15:26;100634.03;;;5.60;100.00
163;BME280;3946;48.958;8.284;2023-03-21T05:18:11;100634.91;;;5.59;100.00
163;BME280;3946;48.958;8.284;2023-03-21T05:21:14;100631.16;;;5.68;100.00
163;BME280;3946;48.958;8.284;2023-03-21T05:24:01;100626.25;;;5.62;100.00
163;BME280;3946;48.958;8.284;2023-03-21T05:26:52;100619.56;;;5.58;100.00
163;BME280;3946;48.958;8.284;2023-03-21T05:29:40;100620.75;;;5.49;100.00
163;BME280;3946;48.958;8.284;2023-03-21T05:32:27;100621.78;;;5.45;100.00
163;BME280;3946;48.958;8.284;2023-03-21T05:35:12;100626.97;;;5.44;100.00
163;BME280;3946;48.958;8.284;2023-03-21T05:37:57;100627.06;;;5.41;100.00
163;BME280;3946;48.958;8.284;2023-03-21T05:40:46;100639.19;;;5.37;100.00
163;BME280;3946;48.958;8.284;2023-03-21T05:43:32;100632.25;;;5.39;100.00
163;BME280;3946;48.958;8.284;2023-03-21T05:46:18;100638.75;;;5.49;100.00
163;BME280;3946;48.958;8.284;2023-03-21T05:49:04;100636.66;;;5.59;100.00
163;BME280;3946;48.958;8.284;2023-03-21T05:51:49;100639.78;;;5.67;100.00
163;BME280;3946;48.958;8.284;2023-03-21T05:54:35;100635.88;;;5.79;100.00
163;BME280;3946;48.958;8.284;2023-03-21T05:57:21;100638.31;;;6.04;100.00
163;BME280;3946;48.958;8.284;2023-03-21T06:00:14;100632.63;;;6.17;100.00
163;BME280;3946;48.958;8.284;2023-03-21T06:02:59;100637.34;;;6.28;100.00
163;BME280;3946;48.958;8.284;2023-03-21T06:06:13;100631.75;;;6.39;100.00
163;BME280;3946;48.958;8.284;2023-03-21T06:09:18;100640.19;;;6.62;100.00
163;BME280;3946;48.958;8.284;2023-03-21T06:12:10;100633.88;;;6.88;100.00
163;BME280;3946;48.958;8.284;2023-03-21T06:15:16;100635.84;;;7.02;100.00
163;BME280;3946;48.958;8.284;2023-03-21T06:18:09;100632.03;;;7.11;100.00
163;BME280;3946;48.958;8.284;2023-03-21T06:20:57;100627.28;;;7.39;100.00
163;BME280;3946;48.958;8.284;2023-03-21T06:23:43;100639.78;;;7.65;100.00
163;BME280;3946;48.958;8.284;2023-03-21T06:26:28;100643.38;;;7.63;100.00
163;BME280;3946;48.958;8.284;2023-03-21T06:29:13;100634.50;;;7.68;100.00
163;BME280;3946;48.958;8.284;2023-03-21T06:32:05;100642.13;;;7.89;100.00
163;BME280;3946;48.958;8.284;2023-03-21T06:34:51;100639.06;;;7.81;100.00
163;BME280;3946;48.958;8.284;2023-03-21T06:37:37;100639.28;;;7.95;100.00
163;BME280;3946;48.958;8.284;2023-03-21T06:40:22;100632.47;;;8.11;100.00
163;BME280;3946;48.958;8.284;2023-03-21T06:43:09;100633.09;;;8.33;100.00
163;BME280;3946;48.958;8.284;2023-03-21T06:45:54;100627.13;;;8.66;100.00
163;BME280;3946;48.958;8.284;2023-03-21T06:48:40;100638.00;;;8.55;100.00
163;BME280;3946;48.958;8.284;2023-03-21T06:51:28;100635.78;;;8.65;100.00
163;BME280;3946;48.958;8.284;2023-03-21T06:54:36;100628.75;;;8.51;100.00
163;BME280;3946;48.958;8.284;2023-03-21T06:57:28;100626.38;;;8.47;100.00
163;BME280;3946;48.958;8.284;2023-03-21T07:00:14;100622.13;;;8.46;100.00
163;BME280;3946;48.958;8.284;2023-03-21T07:03:03;100613.34;;;8.83;100.00
163;BME280;3946;48.958;8.284;2023-03-21T07:05:49;100616.78;;;8.99;100.00
163;BME280;3946;48.958;8.284;2023-03-21T07:08:34;100612.22;;;9.04;99.33
163;BME280;3946;48.958;8.284;2023-03-21T07:11:20;100606.25;;;8.86;98.75
163;BME280;3946;48.958;8.284;2023-03-21T07:14:06;100612.44;;;8.99;99.06
163;BME280;3946;48.958;8.284;2023-03-21T07:16:52;100603.00;;;8.83;98.86
163;BME280;3946;48.958;8.284;2023-03-21T07:19:37;100609.72;;;9.18;98.29
163;BME280;3946;48.958;8.284;2023-03-21T07:22:23;100602.50;;;9.25;96.76
163;BME280;3946;48.958;8.284;2023-03-21T07:25:08;100593.44;;;9.47;94.76
163;BME280;3946;48.958;8.284;2023-03-21T07:27:56;100595.38;;;9.28;95.17
163;BME280;3946;48.958;8.284;2023-03-21T07:30:41;100594.38;;;9.46;94.92
163;BME280;3946;48.958;8.284;2023-03-21T07:33:27;100584.00;;;9.62;94.00
163;BME280;3946;48.958;8.284;2023-03-21T07:36:15;100586.75;;;10.05;93.23
163;BME280;3946;48.958;8.284;2023-03-21T07:39:03;100586.84;;;10.47;91.15
163;BME280;3946;48.958;8.284;2023-03-21T07:41:48;100574.75;;;10.62;88.97
163;BME280;3946;48.958;8.284;2023-03-21T07:44:45;100578.25;;;10.90;86.56
163;BME280;3946;48.958;8.284;2023-03-21T07:47:30;100573.16;;;11.02;85.90
163;BME280;3946;48.958;8.284;2023-03-21T07:50:16;100579.75;;;11.20;85.58
163;BME280;3946;48.958;8.284;2023-03-21T07:53:01;100568.84;;;11.69;83.89
163;BME280;3946;48.958;8.284;2023-03-21T07:55:49;100565.81;;;11.77;82.28
163;BME280;3946;48.958;8.284;2023-03-21T07:58:35;100583.63;;;12.08;82.26
163;BME280;3946;48.958;8.284;2023-03-21T08:01:19;100562.25;;;12.30;80.13
163;BME280;3946;48.958;8.284;2023-03-21T08:04:06;100559.22;;;12.74;78.78
163;BME280;3946;48.958;8.284;2023-03-21T08:06:51;100545.19;;;12.51;77.66
163;BME280;3946;48.958;8.284;2023-03-21T08:09:36;100554.88;;;12.62;77.81
163;BME280;3946;48.958;8.284;2023-03-21T08:12:22;100580.81;;;11.99;78.81
163;BME280;3946;48.958;8.284;2023-03-21T08:15:08;100571.38;;;12.10;78.80
163;BME280;3946;48.958;8.284;2023-03-21T08:17:53;100570.16;;;12.16;78.91
163;BME280;3946;48.958;8.284;2023-03-21T08:20:38;100572.41;;;12.08;79.05
163;BME280;3946;48.958;8.284;2023-03-21T08:23:24;100547.28;;;12.59;76.55
163;BME280;3946;48.958;8.284;2023-03-21T08:26:09;100559.03;;;12.26;77.35
163;BME280;3946;48.958;8.284;2023-03-21T08:28:55;100574.19;;;12.20;78.39
163;BME280;3946;48.958;8.284;2023-03-21T08:31:40;100549.38;;;12.41;76.47
163;BME280;3946;48.958;8.284;2023-03-21T08:34:25;100543.19;;;12.80;76.38
163;BME280;3946;48.958;8.284;2023-03-21T08:37:10;100528.88;;;12.62;75.13
163;BME280;3946;48.958;8.284;2023-03-21T08:39:55;100560.28;;;12.46;76.80
163;BME280;3946;48.958;8.284;2023-03-21T08:42:40;100568.78;;;11.98;77.34
163;BME280;3946;48.958;8.284;2023-03-21T08:45:27;100580.59;;;12.02;78.79
163;BME280;3946;48.958;8.284;2023-03-21T08:48:12;100569.06;;;11.93;77.63
163;BME280;3946;48.958;8.284;2023-03-21T08:50:58;100566.94;;;12.25;77.52
163;BME280;3946;48.958;8.284;2023-03-21T08:53:43;100559.84;;;12.40;77.32
163;BME280;3946;48.958;8.284;2023-03-21T08:56:28;100569.22;;;12.17;76.79
163;BME280;3946;48.958;8.284;2023-03-21T08:59:13;100565.69;;;12.56;77.16
163;BME280;3946;48.958;8.284;2023-03-21T09:01:59;100534.31;;;12.46;75.19
163;BME280;3946;48.958;8.284;2023-03-21T09:04:44;100555.09;;;12.46;75.80
163;BME280;3946;48.958;8.284;2023-03-21T09:07:30;100542.72;;;12.63;75.12
163;BME280;3946;48.958;8.284;2023-03-21T09:10:18;100542.81;;;12.61;75.57
163;BME280;3946;48.958;8.284;2023-03-21T09:13:04;100541.97;;;12.60;75.04
163;BME280;3946;48.958;8.284;2023-03-21T09:15:48;100532.63;;;12.58;74.90
163;BME280;3946;48.958;8.284;2023-03-21T09:18:35;100532.34;;;12.86;74.35
163;BME280;3946;48.958;8.284;2023-03-21T09:21:29;100534.22;;;12.84;74.50
163;BME280;3946;48.958;8.284;2023-03-21T09:24:14;100556.69;;;12.98;75.73
163;BME280;3946;48.958;8.284;2023-03-21T09:27:00;100545.13;;;13.15;74.99
163;BME280;3946;48.958;8.284;2023-03-21T09:29:46;100543.22;;;13.17;74.25
163;BME280;3946;48.958;8.284;2023-03-21T09:32:30;100564.13;;;13.03;75.37
163;BME280;3946;48.958;8.284;2023-03-21T09:35:18;100535.34;;;12.93;74.15
163;BME280;3946;48.958;8.284;2023-03-21T09:38:04;100533.03;;;13.01;73.64
163;BME280;3946;48.958;8.284;2023-03-21T09:40:55;100558.75;;;12.93;75.54
163;BME280;3946;48.958;8.284;2023-03-21T09:43:48;100532.13;;;12.89;74.05
163;BME280;3946;48.958;8.284;2023-03-21T09:46:40;100547.34;;;12.70;74.52
163;BME280;3946;48.958;8.284;2023-03-21T09:49:27;100521.22;;;12.84;72.57
163;BME280;3946;48.958;8.284;2023-03-21T09:52:17;100542.94;;;12.96;74.23
163;BME280;3946;48.958;8.284;2023-03-21T09:55:03;100550.06;;;13.18;74.35
163;BME280;3946;48.958;8.284;2023-03-21T09:58:03;100529.09;;;13.32;72.42
163;BME280;3946;48.958;8.284;2023-03-21T10:00:49;100545.88;;;12.91;73.84
163;BME280;3946;48.958;8.284;2023-03-21T10:03:39;100545.22;;;13.37;73.72
163;BME280;3946;48.958;8.284;2023-03-21T10:06:27;100528.97;;;13.46;72.38
163;BME280;3946;48.958;8.284;2023-03-21T10:09:15;100503.69;;;13.59;70.51
163;BME280;3946;48.958;8.284;2023-03-21T10:12:04;100553.31;;;13.09;73.06
163;BME280;3946;48.958;8.284;2023-03-21T10:14:51;100539.13;;;13.25;72.87
163;BME280;3946;48.958;8.284;2023-03-21T10:17:40;100536.09;;;12.95;73.44
163;BME280;3946;48.958;8.284;2023-03-21T10:20:28;100527.44;;;12.94;73.33
163;BME280;3946;48.958;8.284;2023-03-21T10:23:14;100525.09;;;13.15;73.31
163;BME280;3946;48.958;8.284;2023-03-21T10:26:02;100515.13;;;13.09;72.80
163;BME280;3946;48.958;8.284;2023-03-21T10:28:49;100528.13;;;13.09;73.52
163;BME280;3946;48.958;8.284;2023-03-21T10:31:33;100499.94;;;13.40;72.66
163;BME280;3946;48.958;8.284;2023-03-21T10:34:21;100496.03;;;13.80;71.35
163;BME280;3946;48.958;8.284;2023-03-21T10:37:07;100473.09;;;13.96;70.94
163;BME280;3946;48.958;8.284;2023-03-21T10:39:53;100477.50;;;13.96;70.98
163;BME280;3946;48.958;8.284;2023-03-21T10:42:40;100444.94;;;14.24;69.54
163;BME280;3946;48.958;8.284;2023-03-21T10:45:26;100425.94;;;14.66;68.14
163;BME280;3946;48.958;8.284;2023-03-21T10:48:11;100428.00;;;14.52;68.38
163;BME280;3946;48.958;8.284;2023-03-21T10:50:57;100442.09;;;14.49;68.99
163;BME280;3946;48.958;8.284;2023-03-21T10:53:44;100439.44;;;14.83;68.24
163;BME280;3946;48.958;8.284;2023-03-21T10:56:30;100405.63;;;15.13;67.07
163;BME280;3946;48.958;8.284;2023-03-21T10:59:20;100439.41;;;15.47;67.86
163;BME280;3946;48.958;8.284;2023-03-21T11:02:05;100458.16;;;14.88;68.94
163;BME280;3946;48.958;8.284;2023-03-21T11:05:02;100463.38;;;14.88;69.71
163;BME280;3946;48.958;8.284;2023-03-21T11:07:54;100423.06;;;14.92;67.63
163;BME280;3946;48.958;8.284;2023-03-21T11:10:49;100387.59;;;15.63;65.93
163;BME280;3946;48.958;8.284;2023-03-21T11:13:36;100396.56;;;15.91;66.12
163;BME280;3946;48.958;8.284;2023-03-21T11:16:24;100368.03;;;16.18;64.91
163;BME280;3946;48.958;8.284;2023-03-21T11:19:14;100362.38;;;16.13;64.84
163;BME280;3946;48.958;8.284;2023-03-21T11:22:03;100357.44;;;16.20;64.19
163;BME280;3946;48.958;8.284;2023-03-21T11:24:50;100344.56;;;16.37;63.11
163;BME280;3946;48.958;8.284;2023-03-21T11:27:35;100306.16;;;17.05;61.87
163;BME280;3946;48.958;8.284;2023-03-21T11:30:21;100288.00;;;17.04;60.85
163;BME280;3946;48.958;8.284;2023-03-21T11:33:09;100329.13;;;17.21;62.28
163;BME280;3946;48.958;8.284;2023-03-21T11:35:59;100314.28;;;17.12;61.82
163;BME280;3946;48.958;8.284;2023-03-21T11:38:47;100316.78;;;16.94;61.80
163;BME280;3946;48.958;8.284;2023-03-21T11:41:33;100282.78;;;16.75;60.99
163;BME280;3946;48.958;8.284;2023-03-21T11:44:25;100241.69;;;17.41;58.31
163;BME280;3946;48.958;8.284;2023-03-21T11:47:11;100263.56;;;17.13;59.37
163;BME280;3946;48.958;8.284;2023-03-21T11:49:58;100249.31;;;16.78;58.56
163;BME280;3946;48.958;8.284;2023-03-21T11:52:45;100316.63;;;17.15;61.52
163;BME280;3946;48.958;8.284;2023-03-21T11:55:38;100297.47;;;16.57;61.33
163;BME280;3946;48.958;8.284;2023-03-21T11:58:29;100210.59;;;16.82;57.65
163;BME280;3946;48.958;8.284;2023-03-21T12:01:18;100234.09;;;17.11;58.49
163;BME280;3946;48.958;8.284;2023-03-21T12:04:13;100230.75;;;16.72;58.47
163;BME280;3946;48.958;8.284;2023-03-21T12:07:07;100259.88;;;16.96;59.69
163;BME280;3946;48.958;8.284;2023-03-21T12:10:00;100225.44;;;16.91;58.65
163;BME280;3946;48.958;8.284;2023-03-21T12:12:49;100279.88;;;16.78;61.21
163;BME280;3946;48.958;8.284;2023-03-21T12:15:40;100222.53;;;17.04;58.60
163;BME280;3946;48.958;8.284;2023-03-21T12:18:34;100225.34;;;17.30;58.36
163;BME280;3946;48.958;8.284;2023-03-21T12:21:22;100206.44;;;16.89;58.17
163;BME280;3946;48.958;8.284;2023-03-21T12:24:13;100195.41;;;16.95;57.78
163;BME280;3946;48.958;8.284;2023-03-21T12:27:01;100160.00;;;17.83;56.17
163;BME280;3946;48.958;8.284;2023-03-21T12:29:54;100207.31;;;17.81;57.90
163;BME280;3946;48.958;8.284;2023-03-21T12:32:48;100136.63;;;17.44;55.21
163;BME280;3946;48.958;8.284;2023-03-21T12:35:39;100160.56;;;17.22;56.13
163;BME280;3946;48.958;8.284;2023-03-21T12:38:31;100152.78;;;17.12;56.20
163;BME280;3946;48.958;8.284;2023-03-21T12:41:22;100163.13;;;17.69;56.46
163;BME280;3946;48.958;8.284;2023-03-21T12:44:11;100122.19;;;17.68;54.76
163;BME280;3946;48.958;8.284;2023-03-21T12:46:58;100153.09;;;17.82;56.24
163;BME280;3946;48.958;8.284;2023-03-21T12:49:45;100110.97;;;17.48;54.44
163;BME280;3946;48.958;8.284;2023-03-21T12:52:32;100152.88;;;17.48;56.08
163;BME280;3946;48.958;8.284;2023-03-21T12:55:19;100139.69;;;17.67;55.71
163;BME280;3946;48.958;8.284;2023-03-21T12:58:08;100139.84;;;17.66;55.52
163;BME280;3946;48.958;8.284;2023-03-21T13:00:55;100074.66;;;18.06;53.46
163;BME280;3946;48.958;8.284;2023-03-21T13:03:45;100069.44;;;17.71;53.18
163;BME280;3946;48.958;8.284;2023-03-21T13:06:33;100116.03;;;17.95;54.71
163;BME280;3946;48.958;8.284;2023-03-21T13:09:23;100117.81;;;17.94;54.81
163;BME280;3946;48.958;8.284;2023-03-21T13:12:17;100127.78;;;17.91;55.32
163;BME280;3946;48.958;8.284;2023-03-21T13:15:06;100141.56;;;18.10;56.10
163;BME280;3946;48.958;8.284;2023-03-21T13:17:59;100138.25;;;17.73;56.12
163;BME280;3946;48.958;8.284;2023-03-21T13:20:46;100108.31;;;17.93;54.89
163;BME280;3946;48.958;8.284;2023-03-21T13:23:34;100039.59;;;18.07;52.37
163;BME280;3946;48.958;8.284;2023-03-21T13:26:20;100051.31;;;17.60;52.34
163;BME280;3946;48.958;8.284;2023-03-21T13:29:21;100064.19;;;17.35;53.11
163;BME280;3946;48.958;8.284;2023-03-21T13:32:09;100085.50;;;17.68;53.68
163;BME280;3946;48.958;8.284;2023-03-21T13:35:00;100076.78;;;17.22;53.56
163;BME280;3946;48.958;8.284;2023-03-21T13:37:51;100116.66;;;17.61;54.93
163;BME280;3946;48.958;8.284;2023-03-21T13:40:37;100130.53;;;17.71;55.50
163;BME280;3946;48.958;8.284;2023-03-21T13:43:33;100136.03;;;17.78;56.03
163;BME280;3946;48.958;8.284;2023-03-21T13:46:33;100083.50;;;17.70;54.18
163;BME280;3946;48.958;8.284;2023-03-21T13:49:25;100110.56;;;17.43;55.50
163;BME280;3946;48.958;8.284;2023-03-21T13:52:24;100129.91;;;17.60;56.23
163;BME280;3946;48.958;8.284;2023-03-21T13:55:13;100105.69;;;17.30;55.51
163;BME280;3946;48.958;8.284;2023-03-21T13:57:59;100126.72;;;17.38;56.30
163;BME280;3946;48.958;8.284;2023-03-21T14:01:10;100116.25;;;17.11;56.00
163;BME280;3946;48.958;8.284;2023-03-21T14:04:03;100093.38;;;17.13;55.45
163;BME280;3946;48.958;8.284;2023-03-21T14:06:53;100083.00;;;17.21;54.72
163;BME280;3946;48.958;8.284;2023-03-21T14:09:39;100060.78;;;17.25;54.08
163;BME280;3946;48.958;8.284;2023-03-21T14:12:27;100033.03;;;17.14;53.45
163;BME280;3946;48.958;8.284;2023-03-21T14:15:14;99983.97;;;16.71;51.66
163;BME280;3946;48.958;8.284;2023-03-21T14:18:01;100003.69;;;16.56;52.02
163;BME280;3946;48.958;8.284;2023-03-21T14:20:51;100005.72;;;16.62;52.21
163;BME280;3946;48.958;8.284;2023-03-21T14:23:38;99981.66;;;16.68;51.35
163;BME280;3946;48.958;8.284;2023-03-21T14:26:24;99989.22;;;16.62;52.12
163;BME280;3946;48.958;8.284;2023-03-21T14:29:12;100006.84;;;16.60;52.46
163;BME280;3946;48.958;8.284;2023-03-21T14:31:59;100016.94;;;16.45;52.70
163;BME280;3946;48.958;8.284;2023-03-21T14:34:44;100031.78;;;16.64;53.24
163;BME280;3946;48.958;8.284;2023-03-21T14:37:30;100026.16;;;16.49;52.80
163;BME280;3946;48.958;8.284;2023-03-21T14:40:19;100016.13;;;16.44;52.92
163;BME280;3946;48.958;8.284;2023-03-21T14:43:05;100006.19;;;16.48;52.43
163;BME280;3946;48.958;8.284;2023-03-21T14:45:51;100030.03;;;16.45;52.86
163;BME280;3946;48.958;8.284;2023-03-21T14:48:37;100029.63;;;16.40;53.23
163;BME280;3946;48.958;8.284;2023-03-21T14:51:22;100025.75;;;16.44;53.15
163;BME280;3946;48.958;8.284;2023-03-21T14:54:09;100038.91;;;16.15;53.51
163;BME280;3946;48.958;8.284;2023-03-21T14:56:58;100057.47;;;16.31;54.40
163;BME280;3946;48.958;8.284;2023-03-21T14:59:45;100054.75;;;16.23;54.49
163;BME280;3946;48.958;8.284;2023-03-21T15:02:32;100048.50;;;16.24;54.59
163;BME280;3946;48.958;8.284;2023-03-21T15:05:19;100094.88;;;16.32;56.42
163;BME280;3946;48.958;8.284;2023-03-21T15:08:07;100092.50;;;16.48;56.69
163;BME280;3946;48.958;8.284;2023-03-21T15:10:53;100094.75;;;16.33;56.79
163;BME280;3946;48.958;8.284;2023-03-21T15:13:42;100083.06;;;16.28;56.58
163;BME280;3946;48.958;8.284;2023-03-21T15:16:29;100091.88;;;16.36;56.77
163;BME280;3946;48.958;8.284;2023-03-21T15:19:16;100109.91;;;16.20;57.60
163;BME280;3946;48.958;8.284;2023-03-21T15:22:05;100099.97;;;16.24;57.72
163;BME280;3946;48.958;8.284;2023-03-21T15:24:53;100093.81;;;16.15;57.58
163;BME280;3946;48.958;8.284;2023-03-21T15:27:42;100100.00;;;16.14;57.56